Terminal Aerodrome Forecast
Issued by NWS

Current Version | Previous Version | Graphics & Text | Print | Product List | Glossary On
Versions: 1 2 3 4 5 6 7 8 9 10 11 12 13 14 15 16 17
000
FTUS41 KPBZ 220411 AAB
TAFHLG
TAF AMD
KHLG 220411Z 2204/2224 24010G18KT P6SM BKN100
     FM220900 24010G20KT P6SM -RA BKN035
     FM221100 27012KT P6SM -RA OVC025
     FM221400 26016G30KT P6SM BKN050=

USA.gov is the U.S. government's official web portal to all federal, state and local government web resources and services.